createdAt,value
2018-09-13T00:00:10.649Z,73.79
2018-09-13T00:02:39.300Z,73.59
2018-09-13T00:05:07.555Z,73.77
2018-09-13T00:07:35.802Z,72.91
2018-09-13T00:10:04.059Z,73.69
2018-09-13T00:12:32.308Z,72.61
2018-09-13T00:15:00.557Z,73.08
2018-09-13T00:17:28.782Z,72.22
2018-09-13T00:19:57.014Z,73.44
2018-09-13T00:22:25.250Z,72.99
2018-09-13T00:24:53.491Z,72.76
2018-09-13T00:27:21.726Z,72.73
2018-09-13T00:29:49.965Z,72.96
2018-09-13T00:32:18.203Z,72.59
2018-09-13T00:34:46.427Z,71.92
2018-09-13T00:37:14.661Z,73.09
2018-09-13T00:39:42.972Z,72.98
2018-09-13T00:42:11.205Z,72.45
2018-09-13T00:44:39.442Z,72.91
2018-09-13T00:47:13.683Z,72.89
2018-09-13T00:49:42.890Z,72.51
2018-09-13T00:52:11.132Z,73.20
2018-09-13T00:54:39.368Z,72.07
2018-09-13T00:57:07.952Z,72.74
2018-09-13T00:59:36.190Z,72.88
2018-09-13T01:02:04.443Z,73.19
2018-09-13T01:04:32.666Z,72.13
2018-09-13T01:07:00.898Z,73.17
2018-09-13T01:09:29.114Z,72.42
2018-09-13T01:11:57.382Z,72.89
2018-09-13T01:14:25.654Z,72.31
2018-09-13T01:16:53.894Z,72.37
2018-09-13T01:19:22.147Z,72.43
2018-09-13T01:21:50.422Z,72.95
2018-09-13T01:24:18.642Z,72.92
2018-09-13T01:26:46.973Z,73.98
2018-09-13T01:29:15.198Z,72.59
2018-09-13T01:31:43.478Z,72.41
2018-09-13T01:34:11.706Z,72.71
2018-09-13T01:36:39.922Z,72.61
2018-09-13T01:39:09.233Z,73.30
2018-09-13T01:41:37.661Z,72.88
2018-09-13T01:44:06.253Z,72.25
2018-09-13T01:46:34.481Z,73.21
2018-09-13T01:49:02.723Z,73.23
2018-09-13T01:51:30.921Z,72.94
2018-09-13T01:53:59.172Z,73.09
2018-09-13T01:56:27.395Z,73.49
2018-09-13T01:58:55.621Z,72.77
2018-09-13T02:01:23.846Z,72.27
2018-09-13T02:03:52.099Z,71.51
2018-09-13T02:06:20.330Z,71.55
2018-09-13T02:08:48.615Z,70.93
2018-09-13T02:11:16.882Z,72.72
2018-09-13T02:13:45.119Z,72.79
2018-09-13T02:16:13.341Z,71.76
2018-09-13T02:18:41.594Z,72.29
2018-09-13T02:21:09.834Z,70.59
2018-09-13T02:23:38.084Z,71.11
2018-09-13T02:26:06.525Z,71.88
2018-09-13T02:28:34.757Z,72.16
2018-09-13T02:31:02.996Z,72.57
2018-09-13T02:33:31.229Z,71.40
2018-09-13T02:35:59.454Z,71.12
2018-09-13T02:38:27.670Z,72.07
2018-09-13T02:40:55.955Z,71.50
2018-09-13T02:43:24.184Z,71.24
2018-09-13T02:45:52.505Z,71.40
2018-09-13T02:48:20.742Z,71.53
2018-09-13T02:50:48.997Z,70.15
2018-09-13T02:53:17.228Z,71.58
2018-09-13T02:55:45.461Z,71.10
2018-09-13T02:58:13.702Z,70.99
2018-09-13T03:00:41.931Z,70.95
2018-09-13T03:03:10.169Z,71.10
2018-09-13T03:05:38.406Z,71.28
2018-09-13T03:08:06.668Z,71.41
2018-09-13T03:10:34.901Z,71.61
2018-09-13T03:13:03.165Z,70.69
2018-09-13T03:15:31.403Z,71.38
2018-09-13T03:17:59.650Z,71.76
2018-09-13T03:20:27.915Z,71.93
2018-09-13T03:22:56.127Z,72.59
2018-09-13T03:25:24.353Z,73.04
2018-09-13T03:27:52.894Z,73.21
2018-09-13T03:30:21.170Z,72.68
2018-09-13T03:32:49.404Z,73.98
2018-09-13T03:35:17.653Z,72.82
2018-09-13T03:37:45.910Z,75.15
2018-09-13T03:40:14.150Z,74.26
2018-09-13T03:42:42.461Z,74.94
2018-09-13T03:45:10.763Z,74.45
2018-09-13T03:47:39.019Z,76.01
2018-09-13T03:50:07.251Z,75.99
2018-09-13T03:52:35.495Z,75.29
2018-09-13T03:55:04.884Z,76.79
2018-09-13T03:57:33.106Z,76.41
2018-09-13T04:00:01.340Z,77.08
2018-09-13T04:02:29.622Z,76.51
2018-09-13T04:04:57.832Z,76.83
2018-09-13T04:07:26.102Z,77.49
2018-09-13T04:09:54.322Z,77.96
2018-09-13T04:12:22.898Z,78.36
2018-09-13T04:14:51.141Z,78.12
2018-09-13T04:17:19.386Z,79.30
2018-09-13T04:19:47.789Z,79.45
2018-09-13T04:22:16.781Z,79.51
2018-09-13T04:24:45.367Z,78.88
2018-09-13T04:27:13.991Z,79.26
2018-09-13T04:29:42.588Z,79.78
2018-09-13T04:32:10.842Z,80.33
2018-09-13T04:34:39.107Z,79.37
2018-09-13T04:37:07.570Z,79.87
2018-09-13T04:39:35.823Z,80.52
2018-09-13T04:42:04.043Z,80.89
2018-09-13T04:44:32.310Z,80.98
2018-09-13T04:47:00.547Z,81.82
2018-09-13T04:49:28.791Z,81.09
2018-09-13T04:51:57.019Z,82.29
2018-09-13T04:54:25.282Z,82.90
2018-09-13T04:56:53.494Z,82.93
2018-09-13T04:59:21.729Z,84.01
2018-09-13T05:01:49.950Z,84.01
2018-09-13T05:04:18.175Z,84.19
2018-09-13T05:06:46.472Z,84.73
2018-09-13T05:09:15.080Z,85.10
2018-09-13T05:11:43.376Z,84.20
2018-09-13T05:14:11.584Z,85.39
2018-09-13T05:16:39.822Z,86.38
2018-09-13T05:19:08.045Z,86.89
2018-09-13T05:21:36.277Z,85.81
2018-09-13T05:24:04.514Z,87.09
2018-09-13T05:26:32.751Z,86.97
2018-09-13T05:29:01.026Z,87.37
2018-09-13T05:31:29.276Z,86.51
2018-09-13T05:33:57.465Z,86.92
2018-09-13T05:36:25.701Z,86.73
2018-09-13T05:38:53.942Z,86.74
2018-09-13T05:41:22.178Z,87.01
2018-09-13T05:43:50.410Z,86.86
2018-09-13T05:46:18.650Z,86.44
2018-09-13T05:48:46.881Z,86.36
2018-09-13T05:51:15.164Z,86.90
2018-09-13T05:53:43.338Z,86.49
2018-09-13T05:56:11.564Z,86.41
2018-09-13T05:58:39.801Z,86.09
2018-09-13T06:01:08.150Z,86.05
2018-09-13T06:03:36.393Z,86.42
2018-09-13T06:06:04.622Z,85.82
2018-09-13T06:08:32.890Z,86.11
2018-09-13T06:11:01.076Z,86.58
2018-09-13T06:13:29.313Z,85.89
2018-09-13T06:15:57.538Z,85.78
2018-09-13T06:18:25.786Z,84.62
2018-09-13T06:20:54.007Z,84.25
2018-09-13T06:23:22.230Z,85.41
2018-09-13T06:25:50.479Z,85.25
2018-09-13T06:28:18.698Z,84.17
2018-09-13T06:30:46.925Z,85.11
2018-09-13T06:33:15.182Z,85.12
2018-09-13T06:35:43.431Z,85.60
2018-09-13T06:38:11.699Z,85.11
2018-09-13T06:40:39.894Z,84.58
2018-09-13T06:43:08.146Z,84.37
2018-09-13T06:45:36.387Z,83.74
2018-09-13T06:48:04.956Z,85.03
2018-09-13T06:50:33.187Z,83.99
2018-09-13T06:53:01.427Z,84.47
2018-09-13T06:55:29.665Z,83.79
2018-09-13T06:57:57.943Z,84.34
2018-09-13T07:00:26.258Z,85.03
2018-09-13T07:02:54.491Z,84.66
2018-09-13T07:05:22.922Z,83.90
2018-09-13T07:07:51.150Z,84.68
2018-09-13T07:10:19.382Z,84.27
2018-09-13T07:12:47.605Z,83.85
2018-09-13T07:15:15.854Z,84.08
2018-09-13T07:17:44.092Z,83.56
2018-09-13T07:20:12.323Z,83.56
2018-09-13T07:22:40.555Z,83.92
2018-09-13T07:25:08.844Z,83.88
2018-09-13T07:27:37.082Z,84.60
2018-09-13T07:30:05.407Z,84.47
2018-09-13T07:32:33.650Z,83.82
2018-09-13T07:35:01.902Z,83.52
2018-09-13T07:37:30.146Z,83.35
2018-09-13T07:39:58.390Z,83.47
2018-09-13T07:42:26.657Z,83.51
2018-09-13T07:44:54.878Z,83.13
2018-09-13T07:47:23.097Z,83.06
2018-09-13T07:49:51.349Z,82.27
2018-09-13T07:52:19.590Z,83.52
2018-09-13T07:54:47.856Z,83.71
2018-09-13T07:57:16.050Z,83.33
2018-09-13T07:59:44.278Z,83.68
2018-09-13T08:02:12.503Z,83.87
2018-09-13T08:04:40.747Z,84.13
2018-09-13T08:07:08.969Z,84.19
2018-09-13T08:09:37.231Z,82.25
2018-09-13T08:12:05.677Z,83.43
2018-09-13T08:14:33.702Z,83.53
2018-09-13T08:17:01.929Z,83.45
2018-09-13T08:19:30.162Z,83.54
2018-09-13T08:21:58.406Z,84.19
2018-09-13T08:24:26.609Z,83.91
2018-09-13T08:26:54.899Z,83.38
2018-09-13T08:29:23.091Z,83.50
2018-09-13T08:31:51.317Z,83.66
2018-09-13T08:34:19.546Z,83.91
2018-09-13T08:36:47.825Z,83.04
2018-09-13T08:39:16.005Z,83.17
2018-09-13T08:41:44.246Z,82.96
2018-09-13T08:44:12.477Z,83.28
2018-09-13T08:46:40.725Z,83.16
2018-09-13T08:49:08.951Z,83.54
2018-09-13T08:51:37.210Z,82.93
2018-09-13T08:54:05.465Z,83.15
2018-09-13T08:56:33.696Z,82.95
2018-09-13T08:59:01.930Z,82.96
2018-09-13T09:01:30.165Z,81.12
2018-09-13T09:03:58.434Z,81.71
2018-09-13T09:06:26.706Z,82.01
2018-09-13T09:08:54.903Z,82.08
2018-09-13T09:11:23.130Z,82.21
2018-09-13T09:13:51.382Z,81.22
2018-09-13T09:16:19.627Z,82.14
2018-09-13T09:18:47.890Z,81.44
2018-09-13T09:21:16.114Z,81.23
2018-09-13T09:23:44.338Z,81.56
2018-09-13T09:26:12.557Z,80.83
2018-09-13T09:28:40.821Z,81.54
2018-09-13T09:31:09.055Z,81.24
2018-09-13T09:33:37.277Z,81.39
2018-09-13T09:36:05.535Z,81.53
2018-09-13T09:38:33.786Z,80.96
2018-09-13T09:41:02.066Z,81.78
2018-09-13T09:43:30.286Z,81.12
2018-09-13T09:45:58.582Z,81.10
2018-09-13T09:48:26.905Z,81.36
2018-09-13T09:50:55.151Z,81.39
2018-09-13T09:53:23.425Z,80.84
2018-09-13T09:55:51.650Z,81.67
2018-09-13T09:58:19.887Z,80.98
2018-09-13T10:00:53.490Z,80.58
2018-09-13T10:03:21.731Z,81.98
2018-09-13T10:05:49.961Z,81.48
2018-09-13T10:08:18.186Z,81.52
2018-09-13T10:10:46.406Z,81.13
2018-09-13T10:13:14.642Z,81.41
2018-09-13T10:15:48.266Z,82.15
2018-09-13T10:18:21.705Z,81.09
2018-09-13T10:20:55.197Z,82.98
2018-09-13T10:23:28.618Z,82.58
2018-09-13T10:26:02.177Z,83.60
2018-09-13T10:28:35.726Z,82.32
2018-09-13T10:31:09.159Z,81.82
2018-09-13T10:33:42.784Z,82.18
2018-09-13T10:36:16.253Z,83.30
2018-09-13T10:38:49.758Z,82.91
2018-09-13T10:41:23.256Z,82.16
2018-09-13T10:43:56.719Z,81.59
2018-09-13T10:46:26.589Z,81.72
2018-09-13T10:48:59.914Z,80.96
2018-09-13T10:52:37.325Z,80.46
2018-09-13T10:55:05.643Z,81.21
2018-09-13T10:57:39.227Z,81.65
2018-09-13T11:00:07.495Z,81.24
2018-09-13T11:02:35.759Z,81.36
2018-09-13T11:05:04.060Z,80.86
2018-09-13T11:07:32.288Z,80.78
2018-09-13T11:10:00.535Z,81.54
2018-09-13T11:13:34.512Z,81.26
2018-09-13T11:16:02.785Z,81.41
2018-09-13T11:18:31.030Z,81.74
2018-09-13T11:20:59.310Z,82.11
2018-09-13T11:23:27.579Z,81.48
2018-09-13T11:25:55.835Z,81.66
2018-09-13T11:28:24.053Z,81.09
2018-09-13T11:31:08.839Z,81.23
2018-09-13T11:33:37.062Z,80.38
2018-09-13T11:36:05.302Z,80.16
2018-09-13T11:38:33.546Z,81.61
2018-09-13T11:41:01.996Z,81.12
2018-09-13T11:43:30.070Z,81.36
2018-09-13T11:45:58.326Z,81.44
2018-09-13T11:48:26.575Z,81.29
2018-09-13T11:50:54.810Z,80.77
2018-09-13T11:53:23.123Z,81.00
2018-09-13T11:55:51.345Z,79.99
2018-09-13T11:58:19.558Z,79.67
2018-09-13T12:00:47.826Z,79.73
2018-09-13T12:03:16.045Z,80.38
2018-09-13T12:05:44.274Z,79.02
2018-09-13T12:08:12.505Z,79.81
2018-09-13T12:10:40.730Z,79.35
2018-09-13T12:13:08.975Z,78.73
2018-09-13T12:15:37.204Z,79.00
2018-09-13T12:18:05.705Z,79.85
2018-09-13T12:20:33.918Z,79.77
2018-09-13T12:23:02.161Z,80.28
2018-09-13T12:25:30.370Z,80.00
2018-09-13T12:27:58.589Z,80.56
2018-09-13T12:30:26.818Z,80.43
2018-09-13T12:32:55.058Z,80.73
2018-09-13T12:35:23.289Z,80.83
2018-09-13T12:37:51.511Z,79.22
2018-09-13T12:40:19.755Z,79.63
2018-09-13T12:42:48.028Z,79.53
2018-09-13T12:45:16.308Z,79.52
2018-09-13T12:47:44.544Z,78.87
2018-09-13T12:50:12.812Z,78.97
2018-09-13T12:52:41.039Z,78.59
2018-09-13T12:55:09.330Z,79.01
2018-09-13T12:57:37.602Z,79.49
2018-09-13T13:00:06.063Z,78.60
2018-09-13T13:02:34.305Z,79.20
2018-09-13T13:05:02.541Z,78.45
2018-09-13T13:07:30.796Z,77.49
2018-09-13T13:09:59.018Z,76.24
2018-09-13T13:12:27.288Z,76.22
2018-09-13T13:14:55.546Z,76.32
2018-09-13T13:17:23.853Z,76.83
2018-09-13T13:19:52.103Z,77.40
2018-09-13T13:22:20.317Z,77.18
2018-09-13T13:24:48.595Z,76.37
2018-09-13T13:27:16.873Z,77.09
2018-09-13T13:29:45.027Z,75.62
2018-09-13T13:32:13.277Z,75.40
2018-09-13T13:34:41.482Z,75.37
2018-09-13T13:37:09.716Z,75.88
2018-09-13T13:39:37.948Z,75.64
2018-09-13T13:42:06.274Z,75.90
2018-09-13T13:44:34.517Z,74.93
2018-09-13T13:47:02.754Z,75.85
2018-09-13T13:49:31.035Z,75.25
2018-09-13T13:51:59.247Z,75.64
2018-09-13T13:54:27.477Z,75.44
2018-09-13T13:56:55.693Z,76.56
2018-09-13T13:59:23.916Z,75.41
2018-09-13T14:01:52.384Z,76.61
2018-09-13T14:04:20.622Z,76.11
2018-09-13T14:06:48.853Z,75.96
2018-09-13T14:09:17.087Z,75.82
2018-09-13T14:11:45.327Z,74.89
2018-09-13T14:14:13.566Z,74.31
2018-09-13T14:16:41.797Z,74.31
2018-09-13T14:19:10.050Z,74.93
2018-09-13T14:21:38.282Z,74.42
2018-09-13T14:24:06.542Z,73.34
2018-09-13T14:26:34.789Z,72.87
2018-09-13T14:29:03.062Z,72.95
2018-09-13T14:31:31.284Z,73.23
2018-09-13T14:33:59.519Z,73.07
2018-09-13T14:36:27.738Z,73.12
2018-09-13T14:38:55.962Z,72.38
2018-09-13T14:41:24.295Z,72.04
2018-09-13T14:43:52.516Z,72.05
2018-09-13T14:46:20.737Z,72.25
2018-09-13T14:48:48.958Z,71.01
2018-09-13T14:51:17.181Z,70.32
2018-09-13T14:53:45.399Z,69.47
2018-09-13T14:56:13.662Z,69.28
2018-09-13T14:58:41.849Z,70.22
2018-09-13T15:01:10.078Z,69.53
2018-09-13T15:03:38.402Z,70.32
2018-09-13T15:06:06.665Z,69.31
2018-09-13T15:08:34.887Z,70.64
2018-09-13T15:11:03.155Z,69.53
2018-09-13T15:13:31.385Z,69.51
2018-09-13T15:15:59.622Z,69.01
2018-09-13T15:18:27.890Z,69.03
2018-09-13T15:20:56.115Z,68.83
2018-09-13T15:23:24.411Z,68.67
2018-09-13T15:25:52.622Z,68.86
2018-09-13T15:28:20.863Z,68.37
2018-09-13T15:30:49.168Z,68.85
2018-09-13T15:33:17.391Z,69.14
2018-09-13T15:35:45.598Z,68.68
2018-09-13T15:38:13.846Z,67.86
2018-09-13T15:40:42.151Z,69.32
2018-09-13T15:43:10.447Z,68.69
2018-09-13T15:45:39.275Z,69.06
2018-09-13T15:48:07.600Z,68.52
2018-09-13T15:50:35.848Z,69.24
2018-09-13T15:53:04.139Z,68.57
2018-09-13T15:55:32.417Z,69.73
2018-09-13T15:58:00.644Z,68.41
2018-09-13T16:00:28.896Z,69.63
2018-09-13T16:02:57.166Z,69.27
2018-09-13T16:05:25.458Z,69.84
2018-09-13T16:07:53.673Z,69.39
2018-09-13T16:10:21.932Z,68.61
2018-09-13T16:12:50.232Z,69.70
2018-09-13T16:15:18.399Z,69.78
2018-09-13T16:17:46.621Z,70.48
2018-09-13T16:20:14.875Z,70.19
2018-09-13T16:22:43.181Z,69.37
2018-09-13T16:25:11.401Z,69.34
2018-09-13T16:27:39.626Z,70.29
2018-09-13T16:30:07.866Z,70.27
2018-09-13T16:32:36.100Z,69.75
2018-09-13T16:35:04.470Z,70.47
2018-09-13T16:37:37.891Z,69.99
2018-09-13T16:40:10.335Z,69.76
2018-09-13T16:42:51.264Z,69.94
2018-09-13T16:45:19.702Z,69.91
2018-09-13T16:47:53.185Z,69.67
2018-09-13T16:50:21.387Z,68.77
2018-09-13T16:52:49.604Z,68.52
2018-09-13T16:55:17.854Z,67.52
2018-09-13T16:57:46.126Z,67.50
2018-09-13T17:00:14.380Z,68.30
2018-09-13T17:02:42.610Z,67.37
2018-09-13T17:05:10.950Z,68.45
2018-09-13T17:07:39.347Z,68.67
2018-09-13T17:10:07.650Z,67.93
2018-09-13T17:12:37.996Z,67.99
2018-09-13T17:15:06.510Z,67.56
2018-09-13T17:17:34.844Z,67.30
2018-09-13T17:20:03.111Z,67.94
2018-09-13T17:22:31.354Z,67.61
2018-09-13T17:24:59.607Z,68.71
2018-09-13T17:27:27.943Z,68.20
2018-09-13T17:29:56.202Z,67.66
2018-09-13T17:32:24.445Z,68.05
2018-09-13T17:34:52.687Z,68.13
2018-09-13T17:37:20.931Z,68.36
2018-09-13T17:39:49.217Z,68.32
2018-09-13T17:42:17.473Z,67.89
2018-09-13T17:44:45.722Z,69.77
2018-09-13T17:47:13.955Z,68.66
2018-09-13T17:49:42.247Z,69.26
2018-09-13T17:52:10.434Z,69.63
2018-09-13T17:54:38.673Z,68.54
2018-09-13T17:57:06.975Z,68.33
2018-09-13T17:59:35.226Z,68.24
2018-09-13T18:02:03.480Z,68.87
2018-09-13T18:04:31.763Z,69.15
2018-09-13T18:07:00.047Z,68.76
2018-09-13T18:09:28.326Z,67.99
2018-09-13T18:11:56.529Z,69.39
2018-09-13T18:14:24.754Z,68.26
2018-09-13T18:16:53.011Z,68.58
2018-09-13T18:19:21.270Z,69.01
2018-09-13T18:21:49.486Z,69.50
2018-09-13T18:24:17.736Z,68.68
2018-09-13T18:26:45.986Z,69.07
2018-09-13T18:29:14.283Z,69.09
2018-09-13T18:31:42.603Z,68.80
2018-09-13T18:34:10.880Z,68.49
2018-09-13T18:36:39.118Z,68.27
2018-09-13T18:39:08.887Z,68.15
2018-09-13T18:41:37.155Z,67.92
2018-09-13T18:44:05.411Z,68.26
2018-09-13T18:46:33.695Z,69.13
2018-09-13T18:49:01.959Z,68.53
2018-09-13T18:51:30.216Z,69.01
2018-09-13T18:53:58.665Z,68.72
2018-09-13T18:56:26.757Z,68.32
2018-09-13T18:58:54.988Z,68.98
2018-09-13T19:01:23.244Z,68.69
2018-09-13T19:03:51.516Z,69.67
2018-09-13T19:06:19.742Z,68.96
2018-09-13T19:08:47.971Z,69.69
2018-09-13T19:11:16.263Z,69.29
2018-09-13T19:13:44.490Z,69.07
2018-09-13T19:16:12.796Z,69.15
2018-09-13T19:18:41.014Z,69.94
2018-09-13T19:21:09.269Z,70.23
2018-09-13T19:23:37.508Z,69.98
2018-09-13T19:26:05.812Z,70.05
2018-09-13T19:28:34.038Z,70.09
2018-09-13T19:31:02.290Z,68.86
2018-09-13T19:33:30.494Z,69.66
2018-09-13T19:35:58.811Z,70.35
2018-09-13T19:38:27.048Z,70.03
2018-09-13T19:40:55.294Z,69.59
2018-09-13T19:43:23.530Z,69.48
2018-09-13T19:45:51.892Z,70.58
2018-09-13T19:51:10.583Z,69.69
2018-09-13T19:53:38.802Z,70.73
2018-09-13T19:56:07.057Z,70.39
2018-09-13T19:58:35.269Z,69.49
2018-09-13T20:01:03.502Z,69.03
2018-09-13T20:03:32.817Z,69.90
2018-09-13T20:06:01.034Z,69.68
2018-09-13T20:08:29.279Z,69.33
2018-09-13T20:10:57.487Z,70.45
2018-09-13T20:13:25.723Z,70.02
2018-09-13T20:15:53.929Z,69.77
2018-09-13T20:18:23.067Z,70.61
2018-09-13T20:20:51.265Z,70.20
2018-09-13T20:23:19.555Z,70.97
2018-09-13T20:25:47.766Z,71.45
2018-09-13T20:28:15.990Z,69.94
2018-09-13T20:30:44.219Z,71.51
2018-09-13T20:33:12.479Z,70.97
2018-09-13T20:35:40.710Z,70.23
2018-09-13T20:38:08.942Z,70.66
2018-09-13T20:40:37.175Z,70.80
2018-09-13T20:43:05.918Z,69.20
2018-09-13T20:45:34.282Z,71.10
2018-09-13T20:48:02.464Z,70.85
2018-09-13T20:50:30.744Z,71.49
2018-09-13T20:52:58.957Z,71.29
2018-09-13T20:55:27.195Z,71.16
2018-09-13T20:57:55.412Z,72.06
2018-09-13T21:00:23.638Z,71.79
2018-09-13T21:02:51.922Z,72.26
2018-09-13T21:05:20.448Z,71.60
2018-09-13T21:07:48.606Z,71.53
2018-09-13T21:10:16.854Z,72.24
2018-09-13T21:12:45.083Z,72.29
2018-09-13T21:15:13.327Z,71.95
2018-09-13T21:17:41.558Z,71.80
2018-09-13T21:20:09.778Z,71.96
2018-09-13T21:22:38.010Z,70.96
2018-09-13T21:25:06.235Z,70.77
2018-09-13T21:27:34.453Z,71.66
2018-09-13T21:30:02.723Z,71.60
2018-09-13T21:32:30.984Z,70.84
2018-09-13T21:34:59.207Z,70.74
2018-09-13T21:37:27.425Z,70.67
2018-09-13T21:39:55.672Z,71.00
2018-09-13T21:42:23.921Z,72.13
2018-09-13T21:44:52.133Z,73.10
2018-09-13T21:47:20.366Z,72.81
2018-09-13T21:49:48.585Z,72.56
2018-09-13T21:52:16.825Z,71.47
2018-09-13T21:54:45.057Z,72.32
2018-09-13T21:57:13.269Z,72.34
2018-09-13T21:59:41.484Z,72.17
2018-09-13T22:02:09.705Z,71.90
2018-09-13T22:04:37.929Z,71.96
2018-09-13T22:07:06.291Z,71.32
2018-09-13T22:09:34.493Z,71.98
2018-09-13T22:12:03.481Z,71.45
2018-09-13T22:14:31.722Z,72.66
2018-09-13T22:16:59.973Z,72.29
2018-09-13T22:19:28.182Z,73.13
2018-09-13T22:21:56.417Z,73.15
2018-09-13T22:24:24.645Z,73.03
2018-09-13T22:26:52.858Z,72.41
2018-09-13T22:29:21.078Z,73.05
2018-09-13T22:31:49.306Z,72.33
2018-09-13T22:34:17.541Z,74.27
2018-09-13T22:36:45.797Z,73.36
2018-09-13T22:39:14.034Z,73.88
2018-09-13T22:41:42.281Z,73.26
2018-09-13T22:44:10.498Z,75.23
2018-09-13T22:46:38.720Z,75.20
2018-09-13T22:49:06.992Z,75.00
2018-09-13T22:51:35.238Z,74.66
2018-09-13T22:54:03.502Z,74.30
2018-09-13T22:56:31.732Z,74.79
2018-09-13T22:58:59.963Z,75.72
2018-09-13T23:01:28.193Z,75.49
2018-09-13T23:03:56.411Z,74.60
2018-09-13T23:06:24.620Z,74.17
2018-09-13T23:08:52.869Z,75.09
2018-09-13T23:11:21.085Z,75.35
2018-09-13T23:13:49.339Z,75.04
2018-09-13T23:16:17.591Z,74.88
2018-09-13T23:18:45.812Z,76.09
2018-09-13T23:21:14.029Z,76.51
2018-09-13T23:23:42.258Z,75.31
2018-09-13T23:26:10.526Z,77.53
2018-09-13T23:28:38.748Z,76.77
2018-09-13T23:31:06.966Z,77.42
2018-09-13T23:33:35.186Z,76.21
2018-09-13T23:36:03.414Z,75.03
2018-09-13T23:38:31.655Z,75.45
2018-09-13T23:40:59.886Z,75.33
2018-09-13T23:43:28.110Z,75.82
2018-09-13T23:45:56.330Z,75.44
2018-09-13T23:48:24.548Z,75.14
2018-09-13T23:50:52.784Z,74.97
2018-09-13T23:53:21.011Z,75.83
2018-09-13T23:55:49.236Z,75.45
2018-09-13T23:58:17.441Z,75.25
